createdAt,value
2023-10-14T00:00:15.328Z,96.82
2023-10-14T00:01:17.337Z,96.93
2023-10-14T00:02:19.360Z,96.99
2023-10-14T00:03:21.257Z,97.08
2023-10-14T00:04:23.327Z,97.28
2023-10-14T00:05:25.584Z,97.38
2023-10-14T00:06:28.144Z,97.39
2023-10-14T00:07:30.147Z,97.04
2023-10-14T00:08:38.282Z,96.79
2023-10-14T00:09:40.267Z,96.91
2023-10-14T00:10:44.422Z,96.91
2023-10-14T00:11:46.386Z,97.09
2023-10-14T00:12:48.869Z,97.29
2023-10-14T00:13:50.951Z,97.44
2023-10-14T00:14:52.964Z,97.41
2023-10-14T00:15:54.927Z,97.44
2023-10-14T00:16:57.195Z,97.49
2023-10-14T00:17:59.346Z,97.53
2023-10-14T00:19:03.715Z,97.00
2023-10-14T00:20:07.543Z,96.19
2023-10-14T00:21:12.267Z,95.59
2023-10-14T00:22:14.242Z,95.83
2023-10-14T00:23:16.368Z,95.95
2023-10-14T00:24:19.672Z,96.07
2023-10-14T00:25:23.206Z,95.96
2023-10-14T00:26:28.001Z,95.97
2023-10-14T00:27:29.996Z,95.88
2023-10-14T00:28:31.946Z,95.96
2023-10-14T00:29:36.907Z,96.03
2023-10-14T00:30:39.627Z,96.12
2023-10-14T00:31:43.074Z,96.34
2023-10-14T00:32:45.229Z,96.57
2023-10-14T00:33:47.389Z,96.62
2023-10-14T00:34:49.588Z,96.30
2023-10-14T00:35:52.416Z,95.72
2023-10-14T00:36:54.577Z,95.39
2023-10-14T00:37:56.713Z,95.17
2023-10-14T00:38:58.933Z,94.96
2023-10-14T00:40:00.843Z,94.89
2023-10-14T00:41:02.842Z,94.93
2023-10-14T00:42:05.743Z,95.08
2023-10-14T00:43:07.835Z,95.09
2023-10-14T00:44:13.247Z,95.04
2023-10-14T00:45:15.268Z,95.22
2023-10-14T00:46:18.305Z,95.20
2023-10-14T00:47:20.814Z,95.15
2023-10-14T00:48:22.899Z,95.23
2023-10-14T00:49:26.311Z,95.34
2023-10-14T00:50:28.654Z,95.32
2023-10-14T00:51:32.236Z,95.38
2023-10-14T00:52:34.244Z,95.39
2023-10-14T00:53:41.198Z,95.65
2023-10-14T00:54:45.381Z,95.77
2023-10-14T00:55:48.820Z,95.78
2023-10-14T00:56:51.290Z,95.94
2023-10-14T00:57:53.731Z,95.90
2023-10-14T00:59:00.489Z,95.94
2023-10-14T01:00:03.208Z,96.02
2023-10-14T01:01:05.267Z,96.29
2023-10-14T01:02:10.904Z,96.33
2023-10-14T01:04:25.441Z,96.91
2023-10-14T01:05:27.705Z,96.80
2023-10-14T01:06:30.113Z,96.95
2023-10-14T01:07:32.042Z,96.80
2023-10-14T01:08:34.384Z,96.65
2023-10-14T01:09:36.292Z,96.81
2023-10-14T01:10:38.739Z,96.83
2023-10-14T01:11:40.665Z,96.85
2023-10-14T01:12:42.756Z,96.90
2023-10-14T01:13:45.201Z,96.88
2023-10-14T01:14:48.843Z,96.88
2023-10-14T01:15:52.163Z,97.07
2023-10-14T01:16:54.526Z,97.20
2023-10-14T01:17:56.844Z,97.33
2023-10-14T01:18:58.942Z,97.49
2023-10-14T01:20:02.974Z,97.64
2023-10-14T01:21:06.317Z,97.84
2023-10-14T01:22:11.725Z,98.04
2023-10-14T01:23:13.973Z,98.05
2023-10-14T01:24:18.013Z,97.86
2023-10-14T01:25:20.106Z,97.87
2023-10-14T01:26:22.193Z,97.66
2023-10-14T01:27:24.516Z,97.48
2023-10-14T01:28:26.594Z,97.44
2023-10-14T01:29:28.483Z,97.43
2023-10-14T01:30:30.550Z,97.64
2023-10-14T01:32:01.563Z,97.76
2023-10-14T01:33:04.829Z,98.20
2023-10-14T01:34:07.493Z,98.62
2023-10-14T01:35:09.940Z,99.18
2023-10-14T01:36:12.183Z,99.84
2023-10-14T01:37:14.348Z,100.00
2023-10-14T01:38:16.425Z,100.00
2023-10-14T01:39:18.594Z,100.00
2023-10-14T01:40:25.024Z,100.00
2023-10-14T01:41:27.314Z,100.00
2023-10-14T01:42:29.422Z,100.00
2023-10-14T01:43:31.442Z,100.00
2023-10-14T01:44:33.334Z,100.00
2023-10-14T01:45:37.491Z,100.00
2023-10-14T01:46:39.871Z,100.00
2023-10-14T01:47:41.925Z,100.00
2023-10-14T01:48:45.357Z,100.00
2023-10-14T01:49:47.532Z,100.00
2023-10-14T01:50:51.532Z,100.00
2023-10-14T01:51:53.487Z,100.00
2023-10-14T01:52:55.567Z,100.00
2023-10-14T01:53:57.649Z,100.00
2023-10-14T01:54:59.808Z,100.00
2023-10-14T01:56:03.282Z,99.86
2023-10-14T01:57:05.591Z,99.65
2023-10-14T01:58:08.748Z,99.58
2023-10-14T01:59:10.902Z,99.54
2023-10-14T02:00:13.983Z,99.49
2023-10-14T02:01:16.599Z,99.47
2023-10-14T02:02:18.930Z,100.00
2023-10-14T02:03:22.092Z,99.75
2023-10-14T02:04:24.749Z,99.60
2023-10-14T02:05:27.481Z,98.59
2023-10-14T02:06:30.415Z,98.20
2023-10-14T02:07:32.569Z,98.51
2023-10-14T02:08:34.649Z,98.89
2023-10-14T02:09:36.585Z,99.22
2023-10-14T02:10:38.717Z,99.13
2023-10-14T02:11:40.757Z,98.90
2023-10-14T02:12:42.802Z,98.54
2023-10-14T02:13:44.941Z,98.68
2023-10-14T02:14:46.898Z,99.19
2023-10-14T02:15:50.195Z,99.19
2023-10-14T02:16:52.520Z,99.18
2023-10-14T02:17:54.668Z,99.04
2023-10-14T02:18:57.291Z,99.00
2023-10-14T02:19:59.533Z,99.13
2023-10-14T02:21:01.568Z,99.28
2023-10-14T02:22:05.069Z,99.05
2023-10-14T02:23:07.262Z,98.29
2023-10-14T02:24:09.931Z,97.78
2023-10-14T02:25:12.036Z,97.66
2023-10-14T02:26:20.479Z,97.67
2023-10-14T02:27:22.654Z,97.23
2023-10-14T02:28:26.221Z,96.91
2023-10-14T02:29:28.296Z,96.81
2023-10-14T02:30:30.631Z,96.63
2023-10-14T02:31:33.787Z,96.80
2023-10-14T02:32:35.861Z,97.03
2023-10-14T02:33:37.908Z,97.32
2023-10-14T02:34:41.352Z,97.33
2023-10-14T02:35:43.605Z,96.98
2023-10-14T02:36:45.839Z,96.83
2023-10-14T02:37:47.994Z,96.79
2023-10-14T02:38:50.032Z,96.90
2023-10-14T02:39:52.141Z,97.17
2023-10-14T02:40:54.842Z,97.23
2023-10-14T02:41:56.857Z,97.53
2023-10-14T02:42:59.199Z,97.96
2023-10-14T02:44:01.273Z,98.18
2023-10-14T02:45:03.545Z,98.38
2023-10-14T02:46:05.825Z,98.69
2023-10-14T02:47:08.270Z,98.52
2023-10-14T02:48:10.337Z,98.39
2023-10-14T02:49:14.638Z,98.25
2023-10-14T02:50:17.435Z,98.08
2023-10-14T02:51:24.120Z,97.82
2023-10-14T02:52:26.191Z,97.69
2023-10-14T02:53:28.136Z,97.69
2023-10-14T02:54:30.877Z,97.72
2023-10-14T02:55:34.925Z,97.78
2023-10-14T02:56:38.287Z,98.09
2023-10-14T02:57:40.337Z,98.13
2023-10-14T02:58:42.543Z,98.34
2023-10-14T02:59:45.178Z,98.40
2023-10-14T03:00:48.485Z,98.37
2023-10-14T03:01:50.730Z,98.58
2023-10-14T03:02:52.800Z,98.52
2023-10-14T03:03:55.288Z,98.66
2023-10-14T03:04:58.694Z,98.62
2023-10-14T03:06:01.520Z,98.58
2023-10-14T03:07:03.560Z,98.52
2023-10-14T03:08:05.910Z,98.57
2023-10-14T03:09:07.838Z,99.00
2023-10-14T03:10:12.217Z,99.26
2023-10-14T03:11:14.391Z,99.71
2023-10-14T03:12:16.782Z,100.00
2023-10-14T03:13:19.993Z,100.00
2023-10-14T03:14:22.104Z,100.00
2023-10-14T03:15:24.426Z,100.00
2023-10-14T03:16:26.500Z,100.00
2023-10-14T03:17:28.640Z,100.00
2023-10-14T03:18:30.605Z,100.00
2023-10-14T03:19:32.552Z,100.00
2023-10-14T03:20:37.069Z,100.00
2023-10-14T03:21:39.010Z,100.00
2023-10-14T03:22:40.995Z,100.00
2023-10-14T03:23:42.941Z,100.00
2023-10-14T03:24:45.601Z,100.00
2023-10-14T03:25:51.020Z,100.00
2023-10-14T03:26:53.381Z,100.00
2023-10-14T03:27:57.565Z,100.00
2023-10-14T03:29:00.264Z,100.00
2023-10-14T03:30:02.411Z,100.00
2023-10-14T03:31:05.579Z,100.00
2023-10-14T03:32:08.328Z,100.00
2023-10-14T03:33:15.224Z,100.00
2023-10-14T03:34:17.225Z,100.00
2023-10-14T03:35:19.184Z,100.00
2023-10-14T03:36:21.300Z,100.00
2023-10-14T03:37:23.193Z,100.00
2023-10-14T03:38:25.584Z,100.00
2023-10-14T03:39:28.040Z,100.00
2023-10-14T03:40:30.176Z,100.00
2023-10-14T03:41:32.119Z,100.00
2023-10-14T03:42:34.328Z,100.00
2023-10-14T03:43:38.530Z,100.00
2023-10-14T03:44:40.472Z,100.00
2023-10-14T03:45:43.106Z,100.00
2023-10-14T03:46:45.390Z,100.00
2023-10-14T03:47:47.996Z,99.88
2023-10-14T03:48:50.755Z,99.90
2023-10-14T03:49:52.775Z,100.00
2023-10-14T03:50:54.785Z,98.93
2023-10-14T03:51:56.720Z,100.00
2023-10-14T03:52:58.720Z,100.00
2023-10-14T03:54:01.756Z,99.84
2023-10-14T03:55:04.845Z,99.55
2023-10-14T03:56:07.472Z,99.79
2023-10-14T03:57:10.196Z,99.88
2023-10-14T03:58:12.666Z,100.00
2023-10-14T03:59:19.404Z,99.79
2023-10-14T04:00:26.971Z,99.74
2023-10-14T04:01:31.065Z,99.67
2023-10-14T04:02:33.223Z,99.82
2023-10-14T04:03:35.201Z,99.71
2023-10-14T04:04:37.280Z,99.73
2023-10-14T04:05:43.458Z,99.82
2023-10-14T04:06:49.451Z,99.53
2023-10-14T04:07:51.468Z,99.70
2023-10-14T04:08:53.595Z,98.78
2023-10-14T04:09:55.519Z,98.88
2023-10-14T04:10:58.104Z,98.73
2023-10-14T04:12:01.500Z,98.10
2023-10-14T04:13:05.096Z,98.64
2023-10-14T04:14:07.075Z,98.43
2023-10-14T04:15:10.460Z,98.90
2023-10-14T04:16:12.742Z,98.71
2023-10-14T04:17:14.736Z,98.55
2023-10-14T04:18:16.777Z,99.12
2023-10-14T04:19:18.769Z,99.57
2023-10-14T04:20:22.617Z,99.57
2023-10-14T04:21:24.609Z,99.48
2023-10-14T04:22:26.844Z,99.87
2023-10-14T04:23:29.640Z,100.00
2023-10-14T04:24:32.848Z,100.00
2023-10-14T04:25:34.752Z,100.00
2023-10-14T04:26:37.341Z,100.00
2023-10-14T04:27:41.280Z,100.00
2023-10-14T04:28:43.468Z,100.00
2023-10-14T04:29:45.516Z,100.00
2023-10-14T04:30:47.668Z,100.00
2023-10-14T04:31:49.988Z,100.00
2023-10-14T04:32:53.305Z,100.00
2023-10-14T04:33:55.643Z,100.00
2023-10-14T04:34:57.855Z,100.00
2023-10-14T04:36:00.029Z,100.00
2023-10-14T04:37:03.146Z,100.00
2023-10-14T04:38:05.344Z,100.00
2023-10-14T04:39:07.532Z,100.00
2023-10-14T04:40:10.950Z,100.00
2023-10-14T04:41:13.154Z,100.00
2023-10-14T04:42:16.016Z,100.00
2023-10-14T04:43:18.170Z,100.00
2023-10-14T04:44:20.357Z,100.00
2023-10-14T04:45:22.281Z,100.00
2023-10-14T04:46:24.758Z,100.00
2023-10-14T04:47:26.921Z,100.00
2023-10-14T04:48:38.706Z,100.00
2023-10-14T04:49:41.095Z,100.00
2023-10-14T04:50:44.052Z,100.00
2023-10-14T04:51:46.107Z,100.00
2023-10-14T04:52:48.252Z,100.00
2023-10-14T04:53:50.195Z,100.00
2023-10-14T04:54:52.750Z,100.00
2023-10-14T04:55:55.579Z,100.00
2023-10-14T04:56:58.023Z,100.00
2023-10-14T04:58:00.426Z,100.00
2023-10-14T04:59:02.780Z,100.00
2023-10-14T05:00:06.601Z,100.00
2023-10-14T05:01:10.188Z,100.00
2023-10-14T05:02:13.479Z,100.00
2023-10-14T05:03:17.404Z,100.00
2023-10-14T05:04:19.482Z,100.00
2023-10-14T05:05:21.610Z,100.00
2023-10-14T05:06:25.296Z,100.00
2023-10-14T05:07:27.758Z,100.00
2023-10-14T05:08:30.375Z,99.98
2023-10-14T05:09:32.550Z,99.89
2023-10-14T05:10:34.684Z,99.72
2023-10-14T05:11:36.694Z,99.61
2023-10-14T05:12:38.651Z,99.56
2023-10-14T05:13:41.702Z,99.48
2023-10-14T05:14:44.033Z,99.47
2023-10-14T05:15:47.071Z,99.60
2023-10-14T05:16:50.499Z,99.60
2023-10-14T05:17:54.166Z,99.57
2023-10-14T05:18:56.340Z,99.45
2023-10-14T05:19:58.417Z,99.39
2023-10-14T05:21:00.697Z,99.20
2023-10-14T05:22:03.893Z,98.99
2023-10-14T05:23:05.890Z,98.75
2023-10-14T05:24:09.598Z,98.52
2023-10-14T05:25:11.646Z,98.37
2023-10-14T05:26:13.974Z,98.19
2023-10-14T05:27:16.968Z,98.14
2023-10-14T05:28:18.930Z,97.98
2023-10-14T05:29:21.276Z,97.78
2023-10-14T05:30:26.140Z,97.84
2023-10-14T05:31:28.223Z,97.67
2023-10-14T05:32:30.494Z,97.67
2023-10-14T05:33:32.659Z,97.57
2023-10-14T05:34:34.711Z,97.67
2023-10-14T05:36:49.052Z,97.31
2023-10-14T05:37:51.101Z,97.34
2023-10-14T05:38:53.418Z,97.28
2023-10-14T05:39:56.893Z,97.06
2023-10-14T05:40:59.854Z,96.79
2023-10-14T05:42:02.071Z,96.72
2023-10-14T05:43:04.665Z,96.49
2023-10-14T05:44:06.840Z,96.33
2023-10-14T05:45:10.196Z,96.27
2023-10-14T05:46:12.354Z,96.32
2023-10-14T05:47:17.136Z,96.30
2023-10-14T05:48:21.289Z,96.16
2023-10-14T05:49:23.833Z,96.34
2023-10-14T05:50:26.391Z,96.39
2023-10-14T05:51:28.346Z,96.52
2023-10-14T05:52:30.513Z,96.54
2023-10-14T05:53:32.521Z,96.67
2023-10-14T05:54:35.495Z,96.67
2023-10-14T05:55:37.884Z,96.59
2023-10-14T05:56:40.087Z,96.62
2023-10-14T05:57:42.052Z,96.58
2023-10-14T05:58:45.150Z,96.76
2023-10-14T05:59:49.180Z,96.71
2023-10-14T06:00:51.276Z,96.74
2023-10-14T06:01:53.396Z,96.83
2023-10-14T06:02:59.602Z,96.86
2023-10-14T06:04:01.684Z,96.74
2023-10-14T06:05:04.816Z,96.48
2023-10-14T06:06:07.580Z,96.43
2023-10-14T06:07:10.838Z,96.35
2023-10-14T06:08:12.832Z,96.15
2023-10-14T06:09:15.113Z,96.00
2023-10-14T06:10:18.395Z,95.54
2023-10-14T06:11:20.382Z,95.26
2023-10-14T06:12:22.372Z,94.88
2023-10-14T06:13:28.874Z,94.66
2023-10-14T06:14:31.022Z,94.14
2023-10-14T06:15:41.560Z,93.94
2023-10-14T06:16:44.374Z,93.79
2023-10-14T06:17:48.696Z,93.63
2023-10-14T06:18:50.845Z,93.18
2023-10-14T06:19:52.988Z,92.90
2023-10-14T06:20:55.094Z,92.28
2023-10-14T06:21:57.662Z,92.11
2023-10-14T06:22:59.650Z,92.19
2023-10-14T06:24:01.583Z,92.19
2023-10-14T06:25:05.674Z,91.81
2023-10-14T06:26:09.360Z,91.28
2023-10-14T06:27:11.999Z,91.16
2023-10-14T06:28:15.378Z,90.97
2023-10-14T06:29:17.798Z,90.80
2023-10-14T06:30:20.518Z,90.54
2023-10-14T06:31:24.036Z,89.97
2023-10-14T06:32:26.273Z,89.25
2023-10-14T06:33:28.595Z,88.48
2023-10-14T06:34:32.058Z,88.34
2023-10-14T06:35:35.366Z,87.80
2023-10-14T06:36:38.362Z,87.30
2023-10-14T06:37:40.300Z,87.49
2023-10-14T06:38:44.419Z,87.73
2023-10-14T06:39:52.714Z,87.26
2023-10-14T06:40:57.856Z,86.95
2023-10-14T06:42:00.177Z,87.16
2023-10-14T06:43:04.853Z,86.79
2023-10-14T06:44:06.980Z,86.85
2023-10-14T06:45:08.919Z,86.06
2023-10-14T06:46:11.022Z,85.55
2023-10-14T06:47:14.448Z,85.30
2023-10-14T06:48:16.893Z,85.60
2023-10-14T06:49:18.986Z,85.85
2023-10-14T06:50:23.573Z,84.96
2023-10-14T06:51:26.075Z,85.20
2023-10-14T06:52:29.079Z,84.47
2023-10-14T06:53:31.178Z,84.98
2023-10-14T06:54:34.541Z,84.69
2023-10-14T06:55:37.606Z,84.98
2023-10-14T06:56:39.763Z,84.36
2023-10-14T06:57:41.871Z,83.81
2023-10-14T06:58:44.260Z,83.76
2023-10-14T06:59:46.329Z,83.62
2023-10-14T07:00:49.507Z,83.06
2023-10-14T07:01:52.402Z,83.15
2023-10-14T07:02:55.624Z,83.26
2023-10-14T07:03:58.431Z,84.69
2023-10-14T07:05:00.544Z,85.37
2023-10-14T07:06:02.756Z,85.38
2023-10-14T07:07:05.231Z,85.64
2023-10-14T07:08:07.232Z,85.68
2023-10-14T07:09:11.309Z,85.58
2023-10-14T07:10:14.548Z,86.27
2023-10-14T07:11:16.701Z,86.43
2023-10-14T07:12:18.850Z,86.82
2023-10-14T07:13:22.328Z,86.96
2023-10-14T07:14:24.689Z,86.83
2023-10-14T07:16:39.112Z,86.67
2023-10-14T07:17:42.832Z,86.90
2023-10-14T07:18:44.943Z,86.57
2023-10-14T07:19:47.486Z,85.89
2023-10-14T07:21:00.181Z,85.89
2023-10-14T07:22:02.295Z,86.30
2023-10-14T07:23:04.435Z,85.93
2023-10-14T07:24:07.909Z,85.55
2023-10-14T07:25:10.673Z,85.59
2023-10-14T07:26:14.301Z,85.67
2023-10-14T07:27:16.337Z,85.32
2023-10-14T07:28:18.579Z,85.12
2023-10-14T07:29:21.601Z,85.51
2023-10-14T07:30:24.008Z,86.14
2023-10-14T07:31:26.129Z,85.71
2023-10-14T07:32:28.313Z,85.64
2023-10-14T07:33:30.397Z,85.82
2023-10-14T07:34:33.606Z,85.37
2023-10-14T07:35:36.089Z,84.99
2023-10-14T07:36:38.303Z,85.57
2023-10-14T07:37:47.787Z,85.22
2023-10-14T07:38:49.870Z,85.39
2023-10-14T07:39:51.835Z,84.52
2023-10-14T07:40:57.103Z,84.61
2023-10-14T07:41:59.155Z,84.98
2023-10-14T07:43:05.771Z,84.75
2023-10-14T07:44:07.416Z,84.54
2023-10-14T07:45:10.344Z,84.96
2023-10-14T07:46:12.824Z,85.10
2023-10-14T07:47:14.973Z,84.84
2023-10-14T07:48:16.927Z,85.01
2023-10-14T07:49:20.155Z,85.08
2023-10-14T07:50:23.201Z,85.04
2023-10-14T07:51:30.258Z,85.14
2023-10-14T07:52:28.975Z,85.38
2023-10-14T07:53:30.956Z,84.72
2023-10-14T07:54:33.076Z,84.69
2023-10-14T07:55:40.329Z,84.54
2023-10-14T07:56:42.486Z,84.69
2023-10-14T07:57:44.405Z,83.99
2023-10-14T07:58:46.356Z,83.47
2023-10-14T07:59:48.582Z,83.55
2023-10-14T08:00:53.242Z,83.31
2023-10-14T08:01:55.329Z,82.79
2023-10-14T08:02:57.477Z,82.76
2023-10-14T08:03:59.678Z,83.29
2023-10-14T08:05:02.277Z,83.64
2023-10-14T08:06:08.217Z,83.45
2023-10-14T08:07:10.332Z,83.42
2023-10-14T08:08:12.709Z,82.64
2023-10-14T08:09:14.833Z,82.50
2023-10-14T08:10:18.738Z,82.21
2023-10-14T08:11:22.386Z,82.18
2023-10-14T08:12:24.645Z,82.04
2023-10-14T08:13:28.362Z,82.36
2023-10-14T08:14:30.356Z,81.94
2023-10-14T08:15:33.070Z,82.04
2023-10-14T08:16:35.385Z,81.87
2023-10-14T08:17:37.551Z,81.94
2023-10-14T08:18:40.181Z,82.09
2023-10-14T08:19:42.272Z,82.06
2023-10-14T08:20:44.603Z,81.79
2023-10-14T08:21:46.540Z,81.87
2023-10-14T08:22:48.738Z,81.45
2023-10-14T08:23:50.814Z,81.21
2023-10-14T08:24:52.755Z,80.78
2023-10-14T08:25:55.667Z,81.27
2023-10-14T08:26:58.270Z,81.30
2023-10-14T08:28:01.228Z,81.14
2023-10-14T08:29:06.305Z,81.09
2023-10-14T08:30:11.056Z,81.16
2023-10-14T08:31:18.057Z,80.89
2023-10-14T08:32:20.244Z,81.42
2023-10-14T08:33:24.344Z,81.19
2023-10-14T08:34:26.441Z,81.02
2023-10-14T08:35:28.919Z,81.03
2023-10-14T08:36:31.089Z,80.84
2023-10-14T08:37:33.146Z,80.85
2023-10-14T08:38:35.224Z,80.72
2023-10-14T08:39:37.365Z,80.30
2023-10-14T08:40:41.294Z,80.14
2023-10-14T08:41:47.170Z,80.50
2023-10-14T08:42:52.634Z,80.51
2023-10-14T08:43:58.524Z,80.72
2023-10-14T08:45:02.234Z,80.83
2023-10-14T08:46:05.598Z,80.69
2023-10-14T08:47:11.202Z,80.64
2023-10-14T08:48:13.012Z,80.85
2023-10-14T08:49:17.366Z,80.37
2023-10-14T08:50:23.167Z,80.44
2023-10-14T08:51:39.228Z,80.61
2023-10-14T08:52:31.583Z,80.30
2023-10-14T08:53:33.821Z,80.11
2023-10-14T08:54:37.818Z,80.05
2023-10-14T08:55:42.126Z,79.83
2023-10-14T08:56:47.818Z,79.52
2023-10-14T08:57:51.689Z,79.21
2023-10-14T08:58:53.907Z,78.87
2023-10-14T08:59:56.000Z,79.16
2023-10-14T09:00:58.934Z,78.92
2023-10-14T09:02:03.044Z,78.71
2023-10-14T09:03:09.116Z,78.89
2023-10-14T09:04:11.765Z,78.64
2023-10-14T09:05:14.128Z,78.48
2023-10-14T09:06:17.923Z,78.57
2023-10-14T09:07:21.963Z,78.41
2023-10-14T09:08:24.189Z,78.14
2023-10-14T09:09:26.483Z,78.13
2023-10-14T09:10:29.460Z,78.29
2023-10-14T09:11:32.110Z,78.38
2023-10-14T09:12:34.148Z,78.35
2023-10-14T09:13:36.692Z,78.23
2023-10-14T09:14:39.585Z,78.09
2023-10-14T09:15:43.153Z,78.05
2023-10-14T09:16:49.999Z,78.04
2023-10-14T09:17:52.489Z,78.15
2023-10-14T09:18:59.207Z,78.14
2023-10-14T09:20:01.350Z,77.87
2023-10-14T09:21:04.963Z,77.94
2023-10-14T09:22:07.629Z,77.51
2023-10-14T09:23:28.470Z,77.36
2023-10-14T09:24:32.022Z,77.27
2023-10-14T09:25:36.191Z,77.14
2023-10-14T09:26:41.639Z,77.10
2023-10-14T09:27:47.905Z,77.14
2023-10-14T09:28:51.845Z,77.43
2023-10-14T09:29:53.978Z,77.14
2023-10-14T09:30:59.176Z,77.05
2023-10-14T09:32:01.465Z,77.00
2023-10-14T09:33:05.261Z,77.56
2023-10-14T09:34:07.277Z,77.67
2023-10-14T09:35:09.278Z,77.52
2023-10-14T09:36:16.531Z,77.55
2023-10-14T09:37:19.299Z,77.24
2023-10-14T09:38:23.871Z,77.17
2023-10-14T09:39:26.080Z,77.14
2023-10-14T09:40:28.317Z,76.75
2023-10-14T09:41:30.642Z,76.65
2023-10-14T09:42:33.524Z,76.52
2023-10-14T09:43:38.803Z,76.29
2023-10-14T09:44:43.010Z,76.19
2023-10-14T09:45:50.377Z,75.91
2023-10-14T09:46:52.804Z,75.57
2023-10-14T09:47:56.592Z,75.32
2023-10-14T09:48:59.846Z,75.07
2023-10-14T09:50:02.848Z,74.85
2023-10-14T09:51:07.068Z,74.47
2023-10-14T09:52:11.705Z,74.40
2023-10-14T09:53:15.515Z,74.20
2023-10-14T09:54:18.362Z,74.31
2023-10-14T09:55:24.195Z,73.90
2023-10-14T09:56:40.930Z,73.71
2023-10-14T09:57:34.244Z,73.65
2023-10-14T09:59:50.838Z,73.53
2023-10-14T10:00:53.684Z,73.19
2023-10-14T10:01:55.754Z,73.36
2023-10-14T10:02:58.882Z,73.21
2023-10-14T10:04:04.658Z,72.86
2023-10-14T10:05:08.664Z,73.21
2023-10-14T10:06:17.580Z,73.37
2023-10-14T10:07:52.326Z,73.30
2023-10-14T10:09:03.763Z,73.37
2023-10-14T10:10:20.021Z,73.40
2023-10-14T10:11:23.824Z,73.54
2023-10-14T10:12:29.648Z,73.74
2023-10-14T10:13:32.238Z,73.55
2023-10-14T10:14:40.554Z,73.58
2023-10-14T10:15:42.864Z,73.32
2023-10-14T10:16:54.242Z,73.49
2023-10-14T10:17:59.499Z,73.35
2023-10-14T10:19:01.665Z,72.96
2023-10-14T10:20:08.968Z,72.83
2023-10-14T10:21:11.951Z,72.93
2023-10-14T10:22:18.168Z,72.49
2023-10-14T10:23:22.745Z,72.51
2023-10-14T10:24:33.552Z,72.55
2023-10-14T10:25:42.053Z,72.29
2023-10-14T10:26:58.768Z,72.20
2023-10-14T10:28:21.236Z,72.09
2023-10-14T10:29:26.037Z,71.98
2023-10-14T10:30:28.557Z,71.96
2023-10-14T10:31:31.514Z,71.65
2023-10-14T10:32:35.036Z,71.69
2023-10-14T10:33:55.252Z,71.40
2023-10-14T10:35:14.048Z,71.10
2023-10-14T10:37:52.507Z,71.67
2023-10-14T10:38:56.447Z,71.67
2023-10-14T10:39:59.161Z,71.77
2023-10-14T10:41:19.482Z,71.72
2023-10-14T10:42:21.682Z,71.65
2023-10-14T10:43:23.930Z,71.95
2023-10-14T10:44:26.422Z,72.19
2023-10-14T10:45:32.559Z,72.44
2023-10-14T10:46:38.733Z,72.43
2023-10-14T10:47:51.430Z,72.71
2023-10-14T10:48:54.260Z,72.60
2023-10-14T10:49:59.198Z,72.64
2023-10-14T10:51:02.342Z,72.62
2023-10-14T10:52:11.671Z,72.42
2023-10-14T10:53:16.388Z,72.55
2023-10-14T10:54:18.556Z,72.76
2023-10-14T10:55:22.842Z,72.81
2023-10-14T10:56:27.625Z,72.90
2023-10-14T10:57:30.504Z,72.64
2023-10-14T10:58:33.000Z,72.60
2023-10-14T10:59:36.380Z,72.14
2023-10-14T11:00:41.007Z,72.03
2023-10-14T11:01:43.462Z,71.46
2023-10-14T11:02:45.621Z,71.04
2023-10-14T11:03:47.837Z,70.94
2023-10-14T11:04:50.604Z,70.68
2023-10-14T11:05:52.910Z,70.48
2023-10-14T11:06:55.147Z,70.30
2023-10-14T11:07:58.082Z,70.13
2023-10-14T11:09:01.788Z,70.16
2023-10-14T11:10:04.956Z,70.05
2023-10-14T11:12:18.583Z,69.45
2023-10-14T11:13:20.569Z,69.59
2023-10-14T11:14:25.624Z,69.52
2023-10-14T11:15:29.884Z,69.21
2023-10-14T11:16:32.065Z,68.92
2023-10-14T11:17:37.256Z,68.56
2023-10-14T11:20:01.549Z,68.11
2023-10-14T11:21:04.417Z,68.05
2023-10-14T11:23:31.913Z,68.14
2023-10-14T11:25:51.844Z,68.16
2023-10-14T11:26:56.372Z,68.37
2023-10-14T11:28:02.090Z,68.59
2023-10-14T11:29:06.128Z,68.69
2023-10-14T11:30:13.809Z,68.78
2023-10-14T11:31:20.728Z,68.82
2023-10-14T11:32:23.434Z,68.85
2023-10-14T11:33:26.424Z,68.87
2023-10-14T11:34:35.594Z,68.39
2023-10-14T11:35:37.931Z,68.33
2023-10-14T11:36:47.525Z,68.55
2023-10-14T11:37:58.343Z,69.05
2023-10-14T11:38:57.640Z,69.19
2023-10-14T11:41:16.926Z,69.34
2023-10-14T11:42:21.479Z,68.87
2023-10-14T11:43:25.298Z,68.69
2023-10-14T11:44:29.394Z,68.51
2023-10-14T11:45:36.555Z,68.55
2023-10-14T11:46:40.637Z,68.70
2023-10-14T11:47:42.785Z,68.56
2023-10-14T11:48:47.123Z,68.58
2023-10-14T11:49:49.241Z,68.58
2023-10-14T11:51:06.805Z,68.34
2023-10-14T11:52:12.036Z,68.04
2023-10-14T11:53:20.448Z,67.70
2023-10-14T11:54:24.318Z,67.18
2023-10-14T11:55:28.351Z,67.12
2023-10-14T11:56:34.133Z,67.03
2023-10-14T11:57:40.027Z,67.01
2023-10-14T11:58:42.118Z,67.01
2023-10-14T11:59:47.718Z,66.93
2023-10-14T12:00:53.019Z,67.24
2023-10-14T12:01:57.369Z,67.20
2023-10-14T12:03:01.545Z,67.23
2023-10-14T12:04:04.954Z,67.70
2023-10-14T12:05:10.825Z,67.40
2023-10-14T12:06:14.706Z,67.60
2023-10-14T12:07:22.684Z,67.77
2023-10-14T12:08:33.531Z,67.69
2023-10-14T12:09:35.619Z,67.95
2023-10-14T12:10:37.769Z,67.80
2023-10-14T12:11:45.850Z,67.79
2023-10-14T12:12:47.946Z,67.55
2023-10-14T12:13:51.642Z,67.75
2023-10-14T12:14:53.758Z,67.71
2023-10-14T12:15:58.948Z,67.58
2023-10-14T12:17:12.760Z,67.34
2023-10-14T12:18:18.373Z,67.32
2023-10-14T12:19:23.470Z,67.29
2023-10-14T12:20:28.213Z,67.08
2023-10-14T12:21:30.263Z,67.10
2023-10-14T12:22:34.156Z,67.06
2023-10-14T12:23:38.028Z,67.14
2023-10-14T12:24:40.638Z,67.06
2023-10-14T12:25:42.539Z,67.04
2023-10-14T12:26:44.657Z,67.10
2023-10-14T12:27:47.414Z,67.13
2023-10-14T12:28:51.440Z,67.37
2023-10-14T12:29:56.406Z,67.17
2023-10-14T12:31:02.683Z,67.19
2023-10-14T12:32:17.962Z,67.21
2023-10-14T12:33:11.338Z,67.34
2023-10-14T12:34:20.464Z,67.50
2023-10-14T12:35:22.571Z,67.36
2023-10-14T12:36:30.265Z,67.54
2023-10-14T12:37:30.002Z,67.72
2023-10-14T12:38:32.468Z,67.40
2023-10-14T12:39:36.706Z,67.22
2023-10-14T12:40:39.106Z,67.36
2023-10-14T12:41:41.110Z,67.48
2023-10-14T12:42:43.030Z,67.51
2023-10-14T12:43:45.239Z,67.67
2023-10-14T12:44:47.521Z,67.16
2023-10-14T12:45:49.708Z,67.42
2023-10-14T12:46:51.977Z,67.40
2023-10-14T12:47:54.506Z,66.76
2023-10-14T12:48:56.567Z,66.94
2023-10-14T12:50:01.189Z,67.03
2023-10-14T12:51:02.904Z,67.07
2023-10-14T12:52:07.442Z,67.18
2023-10-14T12:53:09.784Z,67.26
2023-10-14T12:54:15.930Z,67.03
2023-10-14T12:55:18.407Z,67.11
2023-10-14T12:56:20.936Z,66.95
2023-10-14T12:57:23.049Z,67.06
2023-10-14T12:58:25.869Z,66.87
2023-10-14T12:59:27.995Z,67.08
2023-10-14T13:00:31.072Z,67.20
2023-10-14T13:01:35.027Z,67.23
2023-10-14T13:02:38.211Z,67.31
2023-10-14T13:03:40.446Z,67.16
2023-10-14T13:04:42.655Z,67.19
2023-10-14T13:05:45.022Z,67.32
2023-10-14T13:06:47.607Z,67.53
2023-10-14T13:07:50.318Z,66.96
2023-10-14T13:08:57.082Z,66.67
2023-10-14T13:09:59.706Z,66.89
2023-10-14T13:11:02.349Z,67.06
2023-10-14T13:12:06.037Z,66.59
2023-10-14T13:13:08.042Z,66.76
2023-10-14T13:14:11.927Z,66.87
2023-10-14T13:15:17.336Z,66.28
2023-10-14T13:16:21.293Z,66.38
2023-10-14T13:17:25.083Z,66.57
2023-10-14T13:18:27.602Z,67.03
2023-10-14T13:19:32.449Z,67.18
2023-10-14T13:20:36.117Z,67.48
2023-10-14T13:21:38.202Z,67.72
2023-10-14T13:22:40.189Z,67.57
2023-10-14T13:23:44.828Z,67.37
2023-10-14T13:24:46.778Z,67.18
2023-10-14T13:25:48.763Z,67.46
2023-10-14T13:26:50.784Z,67.13
2023-10-14T13:27:53.693Z,67.10
2023-10-14T13:28:55.727Z,67.38
2023-10-14T13:29:57.652Z,67.64
2023-10-14T13:30:59.939Z,67.37
2023-10-14T13:32:02.262Z,67.38
2023-10-14T13:33:05.177Z,67.39
2023-10-14T13:34:07.200Z,67.38
2023-10-14T13:35:09.413Z,67.53
2023-10-14T13:36:12.070Z,67.54
2023-10-14T13:37:14.817Z,67.48
2023-10-14T13:38:16.840Z,67.68
2023-10-14T13:39:18.768Z,67.74
2023-10-14T13:40:37.547Z,67.95
2023-10-14T13:41:26.020Z,67.98
2023-10-14T13:42:27.966Z,67.71
2023-10-14T13:43:29.925Z,67.17
2023-10-14T13:44:31.907Z,66.84
2023-10-14T13:45:33.818Z,67.22
2023-10-14T13:46:35.983Z,66.97